Absaraka, North Dakota
Current Conditions -  °F | °C
As of 4:53 PM on Saturday 25 Oct 2014 (Local Time) from KFAR Reporting Station
Clear Clear  
Wind Chill: 16°   Ceiling: Unl
Heat Index: 16°   Visibility: 10mi
Dew Point: -4°   Wind: 13mph
Humidity: 24%   Direction: 310°NW
Pressure: 30.07"   Gusts: NA
Location:  46.98°N, 97.39°W
Report Text: KFAR 252153Z AUTO 31011KT 10SM CLR 16/M04 A3007 RMK AO2 SLP187 T01611044 TSNO $
Loading
Personal Weather Stations






























Interactive Weather Map
Tropical Storm Tracking
New forecast layout! Learn more

10-Day Weather Forecast

Advertisements
Track Severe Weather on mobile